Grnwood, Indiana
Current Conditions -  °F | °C
As of 4:54 AM on Wednesday 22 Oct 2014 (Local Time) from KIND Reporting Station
Clear Clear  
Wind Chill: 35°   Ceiling: Unl
Heat Index: 40°   Visibility: 10mi
Dew Point: 34°   Wind: 7mph
Humidity: 79%   Direction: 20°NNE
Pressure: 30.24"   Gusts: NA
Location:  39.5883°N, 86.07°W
Report Text: KIND 220854Z 02006KT 10SM CLR 04/01 A3024 RMK AO2 SLP241 T00440011 53009
Loading
Personal Weather Stations






























Interactive Weather Map
Tropical Storm Tracking
New forecast layout! Learn more

10-Day Weather Forecast

Advertisements
Track Severe Weather on mobile